sensor_id;sensor_type;location;lat;lon;timestamp;P1;durP1;ratioP1;P2;durP2;ratioP2
43114;SDS011;28727;50.068;14.452;2023-03-04T00:00:05;25.92;;;13.02;;
43114;SDS011;28727;50.068;14.452;2023-03-04T00:02:41;26.02;;;13.48;;
43114;SDS011;28727;50.068;14.452;2023-03-04T00:05:13;26.10;;;13.23;;
43114;SDS011;28727;50.068;14.452;2023-03-04T00:07:45;28.20;;;14.43;;
43114;SDS011;28727;50.068;14.452;2023-03-04T00:10:19;22.98;;;13.32;;
43114;SDS011;28727;50.068;14.452;2023-03-04T00:12:51;28.67;;;14.20;;
43114;SDS011;28727;50.068;14.452;2023-03-04T00:15:23;26.60;;;13.13;;
43114;SDS011;28727;50.068;14.452;2023-03-04T00:17:55;24.83;;;13.75;;
43114;SDS011;28727;50.068;14.452;2023-03-04T00:20:26;27.75;;;13.80;;
43114;SDS011;28727;50.068;14.452;2023-03-04T00:22:58;27.88;;;13.88;;
43114;SDS011;28727;50.068;14.452;2023-03-04T00:25:30;25.88;;;12.75;;
43114;SDS011;28727;50.068;14.452;2023-03-04T00:28:02;26.42;;;13.18;;
43114;SDS011;28727;50.068;14.452;2023-03-04T00:30:38;26.00;;;13.82;;
43114;SDS011;28727;50.068;14.452;2023-03-04T00:33:24;25.90;;;13.70;;
43114;SDS011;28727;50.068;14.452;2023-03-04T00:35:57;24.25;;;13.57;;
43114;SDS011;28727;50.068;14.452;2023-03-04T00:38:35;25.15;;;13.35;;
43114;SDS011;28727;50.068;14.452;2023-03-04T00:41:07;28.52;;;14.23;;
43114;SDS011;28727;50.068;14.452;2023-03-04T00:43:39;25.70;;;13.95;;
43114;SDS011;28727;50.068;14.452;2023-03-04T00:46:10;24.85;;;12.88;;
43114;SDS011;28727;50.068;14.452;2023-03-04T00:48:42;33.05;;;15.02;;
43114;SDS011;28727;50.068;14.452;2023-03-04T00:51:17;27.73;;;13.73;;
43114;SDS011;28727;50.068;14.452;2023-03-04T00:56:22;29.30;;;14.77;;
43114;SDS011;28727;50.068;14.452;2023-03-04T00:58:54;29.30;;;14.35;;
43114;SDS011;28727;50.068;14.452;2023-03-04T01:01:26;27.25;;;14.43;;
43114;SDS011;28727;50.068;14.452;2023-03-04T01:03:58;30.85;;;15.05;;
43114;SDS011;28727;50.068;14.452;2023-03-04T01:06:30;28.20;;;14.68;;
43114;SDS011;28727;50.068;14.452;2023-03-04T01:09:02;25.50;;;14.25;;
43114;SDS011;28727;50.068;14.452;2023-03-04T01:11:33;28.10;;;15.38;;
43114;SDS011;28727;50.068;14.452;2023-03-04T01:14:05;31.92;;;15.88;;
43114;SDS011;28727;50.068;14.452;2023-03-04T01:16:37;29.52;;;15.55;;
43114;SDS011;28727;50.068;14.452;2023-03-04T01:19:12;30.77;;;15.10;;
43114;SDS011;28727;50.068;14.452;2023-03-04T01:21:47;31.08;;;15.63;;
43114;SDS011;28727;50.068;14.452;2023-03-04T01:24:19;31.65;;;15.20;;
43114;SDS011;28727;50.068;14.452;2023-03-04T01:26:51;31.85;;;15.15;;
43114;SDS011;28727;50.068;14.452;2023-03-04T01:29:25;31.40;;;15.80;;
43114;SDS011;28727;50.068;14.452;2023-03-04T01:32:00;30.23;;;15.00;;
43114;SDS011;28727;50.068;14.452;2023-03-04T01:34:32;30.75;;;15.65;;
43114;SDS011;28727;50.068;14.452;2023-03-04T01:37:07;30.52;;;15.90;;
43114;SDS011;28727;50.068;14.452;2023-03-04T01:39:44;30.48;;;16.83;;
43114;SDS011;28727;50.068;14.452;2023-03-04T01:42:18;30.73;;;16.13;;
43114;SDS011;28727;50.068;14.452;2023-03-04T01:44:53;32.92;;;16.38;;
43114;SDS011;28727;50.068;14.452;2023-03-04T01:47:27;34.63;;;16.95;;
43114;SDS011;28727;50.068;14.452;2023-03-04T01:50:04;30.23;;;15.98;;
43114;SDS011;28727;50.068;14.452;2023-03-04T01:52:49;33.92;;;16.67;;
43114;SDS011;28727;50.068;14.452;2023-03-04T01:55:25;33.35;;;17.00;;
43114;SDS011;28727;50.068;14.452;2023-03-04T01:57:59;37.05;;;18.02;;
43114;SDS011;28727;50.068;14.452;2023-03-04T02:00:32;37.60;;;18.08;;
43114;SDS011;28727;50.068;14.452;2023-03-04T02:03:10;36.90;;;19.23;;
43114;SDS011;28727;50.068;14.452;2023-03-04T02:05:49;34.20;;;17.90;;
43114;SDS011;28727;50.068;14.452;2023-03-04T02:08:25;38.13;;;18.50;;
43114;SDS011;28727;50.068;14.452;2023-03-04T02:10:57;34.75;;;17.83;;
43114;SDS011;28727;50.068;14.452;2023-03-04T02:13:32;36.78;;;17.13;;
43114;SDS011;28727;50.068;14.452;2023-03-04T02:16:04;39.00;;;18.90;;
43114;SDS011;28727;50.068;14.452;2023-03-04T02:18:36;38.28;;;19.08;;
43114;SDS011;28727;50.068;14.452;2023-03-04T02:21:51;37.72;;;18.98;;
43114;SDS011;28727;50.068;14.452;2023-03-04T02:26:53;35.42;;;18.27;;
43114;SDS011;28727;50.068;14.452;2023-03-04T02:29:28;40.45;;;19.42;;
43114;SDS011;28727;50.068;14.452;2023-03-04T02:32:00;36.40;;;17.20;;
43114;SDS011;28727;50.068;14.452;2023-03-04T02:34:33;38.85;;;18.52;;
43114;SDS011;28727;50.068;14.452;2023-03-04T02:37:06;38.55;;;18.75;;
43114;SDS011;28727;50.068;14.452;2023-03-04T02:39:42;39.90;;;18.88;;
43114;SDS011;28727;50.068;14.452;2023-03-04T02:42:16;38.03;;;18.23;;
43114;SDS011;28727;50.068;14.452;2023-03-04T02:44:58;39.53;;;19.60;;
43114;SDS011;28727;50.068;14.452;2023-03-04T02:47:31;37.15;;;18.02;;
43114;SDS011;28727;50.068;14.452;2023-03-04T02:50:02;36.80;;;18.83;;
43114;SDS011;28727;50.068;14.452;2023-03-04T02:52:37;42.08;;;19.42;;
43114;SDS011;28727;50.068;14.452;2023-03-04T02:55:09;38.20;;;19.08;;
43114;SDS011;28727;50.068;14.452;2023-03-04T02:57:41;36.20;;;18.63;;
43114;SDS011;28727;50.068;14.452;2023-03-04T03:00:13;43.67;;;19.85;;
43114;SDS011;28727;50.068;14.452;2023-03-04T03:02:49;37.72;;;18.05;;
43114;SDS011;28727;50.068;14.452;2023-03-04T03:05:22;38.58;;;18.27;;
43114;SDS011;28727;50.068;14.452;2023-03-04T03:08:00;38.45;;;19.38;;
43114;SDS011;28727;50.068;14.452;2023-03-04T03:10:32;39.20;;;19.58;;
43114;SDS011;28727;50.068;14.452;2023-03-04T03:13:05;40.05;;;19.25;;
43114;SDS011;28727;50.068;14.452;2023-03-04T03:15:37;36.58;;;18.73;;
43114;SDS011;28727;50.068;14.452;2023-03-04T03:18:13;40.42;;;20.05;;
43114;SDS011;28727;50.068;14.452;2023-03-04T03:20:45;38.33;;;19.02;;
43114;SDS011;28727;50.068;14.452;2023-03-04T03:23:17;39.00;;;19.88;;
43114;SDS011;28727;50.068;14.452;2023-03-04T03:25:51;36.90;;;18.73;;
43114;SDS011;28727;50.068;14.452;2023-03-04T03:28:23;40.08;;;19.88;;
43114;SDS011;28727;50.068;14.452;2023-03-04T03:30:55;41.97;;;20.95;;
43114;SDS011;28727;50.068;14.452;2023-03-04T03:33:52;41.08;;;19.50;;
43114;SDS011;28727;50.068;14.452;2023-03-04T03:36:24;40.80;;;19.48;;
43114;SDS011;28727;50.068;14.452;2023-03-04T03:38:56;43.58;;;19.95;;
43114;SDS011;28727;50.068;14.452;2023-03-04T03:41:30;37.42;;;18.92;;
43114;SDS011;28727;50.068;14.452;2023-03-04T03:44:02;43.33;;;18.95;;
43114;SDS011;28727;50.068;14.452;2023-03-04T03:46:34;46.55;;;21.45;;
43114;SDS011;28727;50.068;14.452;2023-03-04T03:49:05;49.67;;;22.63;;
43114;SDS011;28727;50.068;14.452;2023-03-04T03:51:40;51.15;;;22.10;;
43114;SDS011;28727;50.068;14.452;2023-03-04T03:54:12;43.10;;;21.40;;
43114;SDS011;28727;50.068;14.452;2023-03-04T03:56:43;41.30;;;20.10;;
43114;SDS011;28727;50.068;14.452;2023-03-04T03:59:18;48.10;;;21.05;;
43114;SDS011;28727;50.068;14.452;2023-03-04T04:01:50;44.55;;;21.40;;
43114;SDS011;28727;50.068;14.452;2023-03-04T04:06:57;46.63;;;20.65;;
43114;SDS011;28727;50.068;14.452;2023-03-04T04:09:30;45.28;;;21.25;;
43114;SDS011;28727;50.068;14.452;2023-03-04T04:12:03;44.75;;;21.52;;
43114;SDS011;28727;50.068;14.452;2023-03-04T04:14:39;48.30;;;21.42;;
43114;SDS011;28727;50.068;14.452;2023-03-04T04:17:11;48.55;;;20.17;;
43114;SDS011;28727;50.068;14.452;2023-03-04T04:19:44;45.42;;;21.45;;
43114;SDS011;28727;50.068;14.452;2023-03-04T04:22:17;44.17;;;21.40;;
43114;SDS011;28727;50.068;14.452;2023-03-04T04:24:56;47.00;;;21.20;;
43114;SDS011;28727;50.068;14.452;2023-03-04T04:29:59;48.65;;;21.83;;
43114;SDS011;28727;50.068;14.452;2023-03-04T04:32:31;46.05;;;21.52;;
43114;SDS011;28727;50.068;14.452;2023-03-04T04:35:06;43.40;;;19.88;;
43114;SDS011;28727;50.068;14.452;2023-03-04T04:37:39;44.00;;;21.35;;
43114;SDS011;28727;50.068;14.452;2023-03-04T04:40:11;41.33;;;19.85;;
43114;SDS011;28727;50.068;14.452;2023-03-04T04:42:47;44.92;;;20.42;;
43114;SDS011;28727;50.068;14.452;2023-03-04T04:45:18;42.97;;;20.63;;
43114;SDS011;28727;50.068;14.452;2023-03-04T04:47:51;41.65;;;19.33;;
43114;SDS011;28727;50.068;14.452;2023-03-04T04:50:24;41.80;;;19.33;;
43114;SDS011;28727;50.068;14.452;2023-03-04T04:53:03;48.13;;;22.10;;
43114;SDS011;28727;50.068;14.452;2023-03-04T04:55:35;46.28;;;20.98;;
43114;SDS011;28727;50.068;14.452;2023-03-04T04:58:11;46.75;;;19.55;;
43114;SDS011;28727;50.068;14.452;2023-03-04T05:00:44;41.30;;;18.50;;
43114;SDS011;28727;50.068;14.452;2023-03-04T05:03:17;41.22;;;19.75;;
43114;SDS011;28727;50.068;14.452;2023-03-04T05:05:49;40.85;;;18.30;;
43114;SDS011;28727;50.068;14.452;2023-03-04T05:08:21;39.65;;;17.83;;
43114;SDS011;28727;50.068;14.452;2023-03-04T05:10:58;40.00;;;18.15;;
43114;SDS011;28727;50.068;14.452;2023-03-04T05:13:30;40.67;;;17.92;;
43114;SDS011;28727;50.068;14.452;2023-03-04T05:16:05;38.45;;;17.88;;
43114;SDS011;28727;50.068;14.452;2023-03-04T05:18:42;42.33;;;18.10;;
43114;SDS011;28727;50.068;14.452;2023-03-04T05:21:14;36.83;;;17.00;;
43114;SDS011;28727;50.068;14.452;2023-03-04T05:23:46;37.30;;;17.08;;
43114;SDS011;28727;50.068;14.452;2023-03-04T05:26:18;40.22;;;17.98;;
43114;SDS011;28727;50.068;14.452;2023-03-04T05:28:50;37.63;;;18.55;;
43114;SDS011;28727;50.068;14.452;2023-03-04T05:31:22;36.85;;;17.95;;
43114;SDS011;28727;50.068;14.452;2023-03-04T05:33:54;38.03;;;17.60;;
43114;SDS011;28727;50.068;14.452;2023-03-04T05:36:28;39.63;;;17.38;;
43114;SDS011;28727;50.068;14.452;2023-03-04T05:39:00;39.42;;;17.15;;
43114;SDS011;28727;50.068;14.452;2023-03-04T05:41:32;37.47;;;16.48;;
43114;SDS011;28727;50.068;14.452;2023-03-04T05:44:05;40.45;;;18.35;;
43114;SDS011;28727;50.068;14.452;2023-03-04T05:46:37;38.45;;;16.85;;
43114;SDS011;28727;50.068;14.452;2023-03-04T05:49:09;41.53;;;16.35;;
43114;SDS011;28727;50.068;14.452;2023-03-04T05:51:43;38.00;;;19.00;;
43114;SDS011;28727;50.068;14.452;2023-03-04T05:54:15;36.42;;;16.63;;
43114;SDS011;28727;50.068;14.452;2023-03-04T05:56:47;36.38;;;16.17;;
43114;SDS011;28727;50.068;14.452;2023-03-04T05:59:19;41.40;;;17.55;;
43114;SDS011;28727;50.068;14.452;2023-03-04T06:01:51;41.25;;;18.23;;
43114;SDS011;28727;50.068;14.452;2023-03-04T06:04:30;38.60;;;17.65;;
43114;SDS011;28727;50.068;14.452;2023-03-04T06:07:03;36.80;;;17.45;;
43114;SDS011;28727;50.068;14.452;2023-03-04T06:09:42;37.17;;;16.27;;
43114;SDS011;28727;50.068;14.452;2023-03-04T06:12:20;38.92;;;18.35;;
43114;SDS011;28727;50.068;14.452;2023-03-04T06:14:52;40.00;;;18.35;;
43114;SDS011;28727;50.068;14.452;2023-03-04T06:17:27;39.40;;;17.50;;
43114;SDS011;28727;50.068;14.452;2023-03-04T06:20:00;40.55;;;17.85;;
43114;SDS011;28727;50.068;14.452;2023-03-04T06:22:32;37.70;;;17.05;;
43114;SDS011;28727;50.068;14.452;2023-03-04T06:25:05;31.52;;;16.20;;
43114;SDS011;28727;50.068;14.452;2023-03-04T06:27:38;35.80;;;17.30;;
43114;SDS011;28727;50.068;14.452;2023-03-04T06:30:11;33.97;;;16.20;;
43114;SDS011;28727;50.068;14.452;2023-03-04T06:32:47;33.35;;;16.35;;
43114;SDS011;28727;50.068;14.452;2023-03-04T06:35:24;31.45;;;16.63;;
43114;SDS011;28727;50.068;14.452;2023-03-04T06:37:56;32.30;;;15.93;;
43114;SDS011;28727;50.068;14.452;2023-03-04T06:40:27;34.55;;;16.75;;
43114;SDS011;28727;50.068;14.452;2023-03-04T06:42:59;34.65;;;15.77;;
43114;SDS011;28727;50.068;14.452;2023-03-04T06:45:31;33.15;;;17.05;;
43114;SDS011;28727;50.068;14.452;2023-03-04T06:48:03;36.85;;;18.35;;
43114;SDS011;28727;50.068;14.452;2023-03-04T06:50:42;39.85;;;19.15;;
43114;SDS011;28727;50.068;14.452;2023-03-04T06:53:14;37.53;;;19.00;;
43114;SDS011;28727;50.068;14.452;2023-03-04T06:55:46;42.50;;;19.10;;
43114;SDS011;28727;50.068;14.452;2023-03-04T06:58:19;43.83;;;20.60;;
43114;SDS011;28727;50.068;14.452;2023-03-04T07:01:11;39.22;;;19.45;;
43114;SDS011;28727;50.068;14.452;2023-03-04T07:03:51;40.55;;;18.83;;
43114;SDS011;28727;50.068;14.452;2023-03-04T07:06:24;36.10;;;18.60;;
43114;SDS011;28727;50.068;14.452;2023-03-04T07:08:57;32.55;;;16.50;;
43114;SDS011;28727;50.068;14.452;2023-03-04T07:11:29;36.80;;;17.52;;
43114;SDS011;28727;50.068;14.452;2023-03-04T07:14:01;35.30;;;18.17;;
43114;SDS011;28727;50.068;14.452;2023-03-04T07:16:33;41.35;;;19.48;;
43114;SDS011;28727;50.068;14.452;2023-03-04T07:19:05;39.42;;;17.45;;
43114;SDS011;28727;50.068;14.452;2023-03-04T07:21:37;37.83;;;18.13;;
43114;SDS011;28727;50.068;14.452;2023-03-04T07:24:09;36.70;;;17.48;;
43114;SDS011;28727;50.068;14.452;2023-03-04T07:26:47;31.98;;;15.73;;
43114;SDS011;28727;50.068;14.452;2023-03-04T07:29:18;29.98;;;14.70;;
43114;SDS011;28727;50.068;14.452;2023-03-04T07:31:50;30.70;;;15.38;;
43114;SDS011;28727;50.068;14.452;2023-03-04T07:34:24;32.95;;;14.95;;
43114;SDS011;28727;50.068;14.452;2023-03-04T07:36:56;32.05;;;15.45;;
43114;SDS011;28727;50.068;14.452;2023-03-04T07:39:28;29.50;;;15.30;;
43114;SDS011;28727;50.068;14.452;2023-03-04T07:41:59;28.67;;;14.77;;
43114;SDS011;28727;50.068;14.452;2023-03-04T07:44:31;29.35;;;14.05;;
43114;SDS011;28727;50.068;14.452;2023-03-04T07:47:03;25.17;;;12.73;;
43114;SDS011;28727;50.068;14.452;2023-03-04T07:49:38;25.02;;;12.85;;
43114;SDS011;28727;50.068;14.452;2023-03-04T07:52:12;26.52;;;13.43;;
43114;SDS011;28727;50.068;14.452;2023-03-04T07:54:47;28.15;;;13.25;;
43114;SDS011;28727;50.068;14.452;2023-03-04T07:59:52;26.92;;;12.30;;
43114;SDS011;28727;50.068;14.452;2023-03-04T08:03:00;27.00;;;13.45;;
43114;SDS011;28727;50.068;14.452;2023-03-04T08:05:34;25.48;;;13.75;;
43114;SDS011;28727;50.068;14.452;2023-03-04T08:08:09;24.60;;;13.77;;
43114;SDS011;28727;50.068;14.452;2023-03-04T08:10:43;25.50;;;12.70;;
43114;SDS011;28727;50.068;14.452;2023-03-04T08:13:16;23.83;;;11.88;;
43114;SDS011;28727;50.068;14.452;2023-03-04T08:15:48;25.65;;;11.90;;
43114;SDS011;28727;50.068;14.452;2023-03-04T08:18:45;22.42;;;11.93;;
43114;SDS011;28727;50.068;14.452;2023-03-04T08:21:26;27.00;;;12.18;;
43114;SDS011;28727;50.068;14.452;2023-03-04T08:24:01;20.80;;;11.43;;
43114;SDS011;28727;50.068;14.452;2023-03-04T08:26:40;23.17;;;11.65;;
43114;SDS011;28727;50.068;14.452;2023-03-04T08:29:17;21.50;;;10.65;;
43114;SDS011;28727;50.068;14.452;2023-03-04T08:31:52;23.25;;;12.38;;
43114;SDS011;28727;50.068;14.452;2023-03-04T08:34:26;25.15;;;12.07;;
43114;SDS011;28727;50.068;14.452;2023-03-04T08:36:59;22.13;;;12.45;;
43114;SDS011;28727;50.068;14.452;2023-03-04T08:39:31;23.38;;;12.77;;
43114;SDS011;28727;50.068;14.452;2023-03-04T08:42:09;22.50;;;11.93;;
43114;SDS011;28727;50.068;14.452;2023-03-04T08:44:41;27.88;;;12.40;;
43114;SDS011;28727;50.068;14.452;2023-03-04T08:47:16;26.70;;;12.55;;
43114;SDS011;28727;50.068;14.452;2023-03-04T08:49:48;22.58;;;12.57;;
43114;SDS011;28727;50.068;14.452;2023-03-04T08:52:24;25.83;;;12.98;;
43114;SDS011;28727;50.068;14.452;2023-03-04T08:54:58;20.63;;;11.32;;
43114;SDS011;28727;50.068;14.452;2023-03-04T08:57:31;25.70;;;12.73;;
43114;SDS011;28727;50.068;14.452;2023-03-04T09:00:06;28.23;;;12.30;;
43114;SDS011;28727;50.068;14.452;2023-03-04T09:02:39;24.70;;;12.00;;
43114;SDS011;28727;50.068;14.452;2023-03-04T09:05:11;19.52;;;10.68;;
43114;SDS011;28727;50.068;14.452;2023-03-04T09:07:45;17.85;;;10.23;;
43114;SDS011;28727;50.068;14.452;2023-03-04T09:10:17;19.27;;;10.98;;
43114;SDS011;28727;50.068;14.452;2023-03-04T09:12:52;19.65;;;10.85;;
43114;SDS011;28727;50.068;14.452;2023-03-04T09:15:26;20.73;;;11.32;;
43114;SDS011;28727;50.068;14.452;2023-03-04T09:17:58;21.63;;;11.40;;
43114;SDS011;28727;50.068;14.452;2023-03-04T09:20:33;21.60;;;10.85;;
43114;SDS011;28727;50.068;14.452;2023-03-04T09:23:10;24.20;;;12.95;;
43114;SDS011;28727;50.068;14.452;2023-03-04T09:25:43;22.55;;;11.98;;
43114;SDS011;28727;50.068;14.452;2023-03-04T09:28:17;23.40;;;12.07;;
43114;SDS011;28727;50.068;14.452;2023-03-04T09:30:50;23.50;;;12.00;;
43114;SDS011;28727;50.068;14.452;2023-03-04T09:33:21;20.30;;;10.65;;
43114;SDS011;28727;50.068;14.452;2023-03-04T09:35:53;19.05;;;10.48;;
43114;SDS011;28727;50.068;14.452;2023-03-04T09:38:25;17.40;;;9.35;;
43114;SDS011;28727;50.068;14.452;2023-03-04T09:40:58;16.88;;;9.57;;
43114;SDS011;28727;50.068;14.452;2023-03-04T09:43:37;18.77;;;9.82;;
43114;SDS011;28727;50.068;14.452;2023-03-04T09:48:48;14.68;;;9.20;;
43114;SDS011;28727;50.068;14.452;2023-03-04T09:54:05;16.70;;;8.57;;
43114;SDS011;28727;50.068;14.452;2023-03-04T09:56:39;19.48;;;8.80;;
43114;SDS011;28727;50.068;14.452;2023-03-04T10:02:23;17.75;;;9.32;;
43114;SDS011;28727;50.068;14.452;2023-03-04T10:05:26;15.68;;;9.27;;
43114;SDS011;28727;50.068;14.452;2023-03-04T10:08:06;18.80;;;9.27;;
43114;SDS011;28727;50.068;14.452;2023-03-04T10:20:09;16.10;;;9.43;;
43114;SDS011;28727;50.068;14.452;2023-03-04T10:22:51;20.17;;;10.13;;
43114;SDS011;28727;50.068;14.452;2023-03-04T10:25:45;22.52;;;9.93;;
43114;SDS011;28727;50.068;14.452;2023-03-04T10:28:31;18.40;;;9.73;;
43114;SDS011;28727;50.068;14.452;2023-03-04T10:33:41;21.07;;;10.87;;
43114;SDS011;28727;50.068;14.452;2023-03-04T10:39:06;21.98;;;10.32;;
43114;SDS011;28727;50.068;14.452;2023-03-04T10:41:59;18.80;;;9.68;;
43114;SDS011;28727;50.068;14.452;2023-03-04T10:44:34;20.38;;;9.50;;
43114;SDS011;28727;50.068;14.452;2023-03-04T10:47:09;18.42;;;8.80;;
43114;SDS011;28727;50.068;14.452;2023-03-04T10:49:50;16.88;;;9.45;;
43114;SDS011;28727;50.068;14.452;2023-03-04T10:52:37;19.17;;;9.10;;
43114;SDS011;28727;50.068;14.452;2023-03-04T11:00:32;19.92;;;8.80;;
43114;SDS011;28727;50.068;14.452;2023-03-04T11:06:09;19.67;;;9.43;;
43114;SDS011;28727;50.068;14.452;2023-03-04T11:08:56;19.42;;;8.65;;
43114;SDS011;28727;50.068;14.452;2023-03-04T11:11:32;16.55;;;8.07;;
43114;SDS011;28727;50.068;14.452;2023-03-04T11:17:25;15.85;;;8.20;;
43114;SDS011;28727;50.068;14.452;2023-03-04T11:20:02;16.42;;;8.32;;
43114;SDS011;28727;50.068;14.452;2023-03-04T11:22:43;16.55;;;8.02;;
43114;SDS011;28727;50.068;14.452;2023-03-04T11:25:22;18.42;;;9.05;;
43114;SDS011;28727;50.068;14.452;2023-03-04T11:27:59;16.85;;;8.52;;
43114;SDS011;28727;50.068;14.452;2023-03-04T11:30:47;19.98;;;8.73;;
43114;SDS011;28727;50.068;14.452;2023-03-04T11:39:28;17.85;;;8.95;;
43114;SDS011;28727;50.068;14.452;2023-03-04T11:45:20;18.60;;;9.05;;
43114;SDS011;28727;50.068;14.452;2023-03-04T11:48:33;17.45;;;9.50;;
43114;SDS011;28727;50.068;14.452;2023-03-04T11:51:22;18.42;;;8.98;;
43114;SDS011;28727;50.068;14.452;2023-03-04T11:54:29;18.27;;;9.95;;
43114;SDS011;28727;50.068;14.452;2023-03-04T11:57:12;20.42;;;8.50;;
43114;SDS011;28727;50.068;14.452;2023-03-04T11:59:54;16.75;;;8.30;;
43114;SDS011;28727;50.068;14.452;2023-03-04T12:02:46;17.48;;;8.75;;
43114;SDS011;28727;50.068;14.452;2023-03-04T12:05:45;16.10;;;7.90;;
43114;SDS011;28727;50.068;14.452;2023-03-04T12:11:46;16.42;;;8.38;;
43114;SDS011;28727;50.068;14.452;2023-03-04T12:15:11;14.13;;;8.05;;
43114;SDS011;28727;50.068;14.452;2023-03-04T12:17:26;13.30;;;6.68;;
43114;SDS011;28727;50.068;14.452;2023-03-04T12:20:21;12.63;;;7.82;;
43114;SDS011;28727;50.068;14.452;2023-03-04T12:23:07;13.88;;;7.28;;
43114;SDS011;28727;50.068;14.452;2023-03-04T12:28:46;12.50;;;7.00;;
43114;SDS011;28727;50.068;14.452;2023-03-04T12:31:38;12.32;;;6.63;;
43114;SDS011;28727;50.068;14.452;2023-03-04T12:39:39;13.18;;;7.70;;
43114;SDS011;28727;50.068;14.452;2023-03-04T12:48:35;13.55;;;7.40;;
43114;SDS011;28727;50.068;14.452;2023-03-04T13:08:31;12.63;;;6.55;;
43114;SDS011;28727;50.068;14.452;2023-03-04T13:16:41;9.75;;;5.82;;
43114;SDS011;28727;50.068;14.452;2023-03-04T13:35:59;8.02;;;4.53;;
43114;SDS011;28727;50.068;14.452;2023-03-04T13:38:36;11.30;;;5.28;;
43114;SDS011;28727;50.068;14.452;2023-03-04T13:43:55;7.32;;;3.78;;
43114;SDS011;28727;50.068;14.452;2023-03-04T13:46:38;7.47;;;2.80;;
43114;SDS011;28727;50.068;14.452;2023-03-04T13:49:20;7.27;;;2.87;;
43114;SDS011;28727;50.068;14.452;2023-03-04T13:51:55;7.18;;;2.60;;
43114;SDS011;28727;50.068;14.452;2023-03-04T13:54:31;5.75;;;2.70;;
43114;SDS011;28727;50.068;14.452;2023-03-04T13:57:37;5.93;;;2.53;;
43114;SDS011;28727;50.068;14.452;2023-03-04T14:00:02;4.53;;;2.70;;
43114;SDS011;28727;50.068;14.452;2023-03-04T14:02:38;5.18;;;2.42;;
43114;SDS011;28727;50.068;14.452;2023-03-04T14:05:10;6.93;;;2.70;;
43114;SDS011;28727;50.068;14.452;2023-03-04T14:07:42;5.18;;;2.72;;
43114;SDS011;28727;50.068;14.452;2023-03-04T14:10:22;4.95;;;2.58;;
43114;SDS011;28727;50.068;14.452;2023-03-04T14:12:55;4.35;;;2.35;;
43114;SDS011;28727;50.068;14.452;2023-03-04T14:15:30;4.97;;;2.22;;
43114;SDS011;28727;50.068;14.452;2023-03-04T14:18:05;5.90;;;2.10;;
43114;SDS011;28727;50.068;14.452;2023-03-04T14:20:38;5.35;;;2.10;;
43114;SDS011;28727;50.068;14.452;2023-03-04T14:23:23;5.05;;;2.10;;
43114;SDS011;28727;50.068;14.452;2023-03-04T14:26:18;3.65;;;1.70;;
43114;SDS011;28727;50.068;14.452;2023-03-04T14:28:50;4.63;;;1.90;;
43114;SDS011;28727;50.068;14.452;2023-03-04T14:31:27;4.18;;;2.00;;
43114;SDS011;28727;50.068;14.452;2023-03-04T14:34:05;4.15;;;2.05;;
43114;SDS011;28727;50.068;14.452;2023-03-04T14:36:38;5.47;;;2.28;;
43114;SDS011;28727;50.068;14.452;2023-03-04T14:39:14;5.07;;;2.15;;
43114;SDS011;28727;50.068;14.452;2023-03-04T14:41:49;4.70;;;2.08;;
43114;SDS011;28727;50.068;14.452;2023-03-04T14:44:35;2.63;;;1.67;;
43114;SDS011;28727;50.068;14.452;2023-03-04T14:47:20;5.25;;;1.98;;
43114;SDS011;28727;50.068;14.452;2023-03-04T14:49:56;3.20;;;1.70;;
43114;SDS011;28727;50.068;14.452;2023-03-04T14:57:53;5.45;;;1.50;;
43114;SDS011;28727;50.068;14.452;2023-03-04T15:00:38;5.13;;;1.52;;
43114;SDS011;28727;50.068;14.452;2023-03-04T15:03:21;6.55;;;2.05;;
43114;SDS011;28727;50.068;14.452;2023-03-04T15:06:05;6.45;;;2.17;;
43114;SDS011;28727;50.068;14.452;2023-03-04T15:09:07;3.92;;;1.90;;
43114;SDS011;28727;50.068;14.452;2023-03-04T15:11:50;5.13;;;1.50;;
43114;SDS011;28727;50.068;14.452;2023-03-04T15:14:45;3.63;;;1.80;;
43114;SDS011;28727;50.068;14.452;2023-03-04T15:17:36;6.07;;;1.70;;
43114;SDS011;28727;50.068;14.452;2023-03-04T15:25:20;7.32;;;2.00;;
43114;SDS011;28727;50.068;14.452;2023-03-04T15:27:52;3.10;;;1.63;;
43114;SDS011;28727;50.068;14.452;2023-03-04T15:30:31;5.13;;;1.88;;
43114;SDS011;28727;50.068;14.452;2023-03-04T15:33:08;3.35;;;2.00;;
43114;SDS011;28727;50.068;14.452;2023-03-04T15:35:47;4.80;;;2.00;;
43114;SDS011;28727;50.068;14.452;2023-03-04T15:38:24;5.68;;;2.10;;
43114;SDS011;28727;50.068;14.452;2023-03-04T15:41:00;4.40;;;2.03;;
43114;SDS011;28727;50.068;14.452;2023-03-04T15:43:32;4.93;;;2.15;;
43114;SDS011;28727;50.068;14.452;2023-03-04T15:46:07;5.22;;;2.40;;
43114;SDS011;28727;50.068;14.452;2023-03-04T15:48:42;5.78;;;2.33;;
43114;SDS011;28727;50.068;14.452;2023-03-04T15:51:16;5.50;;;2.35;;
43114;SDS011;28727;50.068;14.452;2023-03-04T15:53:51;7.43;;;2.60;;
43114;SDS011;28727;50.068;14.452;2023-03-04T15:56:26;4.43;;;2.45;;
43114;SDS011;28727;50.068;14.452;2023-03-04T15:59:08;7.70;;;3.05;;
43114;SDS011;28727;50.068;14.452;2023-03-04T16:01:42;5.22;;;2.40;;
43114;SDS011;28727;50.068;14.452;2023-03-04T16:04:15;5.53;;;2.40;;
43114;SDS011;28727;50.068;14.452;2023-03-04T16:06:49;5.50;;;2.47;;
43114;SDS011;28727;50.068;14.452;2023-03-04T16:09:25;6.38;;;2.47;;
43114;SDS011;28727;50.068;14.452;2023-03-04T16:11:57;6.13;;;2.58;;
43114;SDS011;28727;50.068;14.452;2023-03-04T16:14:32;5.88;;;3.00;;
43114;SDS011;28727;50.068;14.452;2023-03-04T16:17:04;6.55;;;3.00;;
43114;SDS011;28727;50.068;14.452;2023-03-04T16:19:37;9.10;;;2.55;;
43114;SDS011;28727;50.068;14.452;2023-03-04T16:22:15;6.05;;;2.22;;
43114;SDS011;28727;50.068;14.452;2023-03-04T16:24:50;6.35;;;2.70;;
43114;SDS011;28727;50.068;14.452;2023-03-04T16:27:23;5.13;;;2.50;;
43114;SDS011;28727;50.068;14.452;2023-03-04T16:29:56;5.30;;;2.53;;
43114;SDS011;28727;50.068;14.452;2023-03-04T16:32:28;5.32;;;2.90;;
43114;SDS011;28727;50.068;14.452;2023-03-04T16:35:04;4.50;;;2.38;;
43114;SDS011;28727;50.068;14.452;2023-03-04T16:37:36;8.13;;;3.10;;
43114;SDS011;28727;50.068;14.452;2023-03-04T16:40:10;7.75;;;3.03;;
43114;SDS011;28727;50.068;14.452;2023-03-04T16:42:45;6.85;;;2.45;;
43114;SDS011;28727;50.068;14.452;2023-03-04T16:45:18;6.45;;;2.85;;
43114;SDS011;28727;50.068;14.452;2023-03-04T16:47:56;7.75;;;2.95;;
43114;SDS011;28727;50.068;14.452;2023-03-04T16:50:28;6.13;;;2.90;;
43114;SDS011;28727;50.068;14.452;2023-03-04T16:53:00;4.93;;;2.80;;
43114;SDS011;28727;50.068;14.452;2023-03-04T16:55:36;8.35;;;2.55;;
43114;SDS011;28727;50.068;14.452;2023-03-04T16:58:08;5.32;;;2.63;;
43114;SDS011;28727;50.068;14.452;2023-03-04T17:00:41;6.93;;;2.80;;
43114;SDS011;28727;50.068;14.452;2023-03-04T17:03:13;7.18;;;2.90;;
43114;SDS011;28727;50.068;14.452;2023-03-04T17:05:45;6.53;;;2.90;;
43114;SDS011;28727;50.068;14.452;2023-03-04T17:08:18;6.45;;;3.03;;
43114;SDS011;28727;50.068;14.452;2023-03-04T17:10:50;8.55;;;3.10;;
43114;SDS011;28727;50.068;14.452;2023-03-04T17:13:22;7.20;;;2.72;;